sensor_id;sensor_type;location;lat;lon;timestamp;pressure;altitude;pressure_sealevel;temperature
64904;BMP280;51401;48.882;12.598;2023-04-03T00:01:27;92552.16;;;4.48
64904;BMP280;51401;48.882;12.598;2023-04-03T00:03:53;92546.72;;;4.60
64904;BMP280;51401;48.882;12.598;2023-04-03T00:06:18;92618.22;;;4.63
64904;BMP280;51401;48.882;12.598;2023-04-03T00:08:44;92664.50;;;4.54
64904;BMP280;51401;48.882;12.598;2023-04-03T00:11:09;92661.25;;;4.54
64904;BMP280;51401;48.882;12.598;2023-04-03T00:13:35;92631.28;;;4.65
64904;BMP280;51401;48.882;12.598;2023-04-03T00:16:01;92636.22;;;4.69
64904;BMP280;51401;48.882;12.598;2023-04-03T00:18:28;92737.91;;;4.57
64904;BMP280;51401;48.882;12.598;2023-04-03T00:20:54;92830.66;;;4.61
64904;BMP280;51401;48.882;12.598;2023-04-03T00:23:19;92808.25;;;4.56
64904;BMP280;51401;48.882;12.598;2023-04-03T00:25:44;92787.22;;;4.52
64904;BMP280;51401;48.882;12.598;2023-04-03T00:28:09;92697.03;;;4.49
64904;BMP280;51401;48.882;12.598;2023-04-03T00:30:35;92656.56;;;4.52
64904;BMP280;51401;48.882;12.598;2023-04-03T00:33:01;92685.53;;;4.58
64904;BMP280;51401;48.882;12.598;2023-04-03T00:35:27;92681.28;;;4.55
64904;BMP280;51401;48.882;12.598;2023-04-03T00:37:53;92663.34;;;4.55
64904;BMP280;51401;48.882;12.598;2023-04-03T00:40:22;92634.91;;;4.53
64904;BMP280;51401;48.882;12.598;2023-04-03T00:42:49;92665.47;;;4.57
64904;BMP280;51401;48.882;12.598;2023-04-03T00:45:46;92685.63;;;4.50
64904;BMP280;51401;48.882;12.598;2023-04-03T00:48:17;92616.91;;;4.48
64904;BMP280;51401;48.882;12.598;2023-04-03T00:50:44;92517.00;;;4.48
64904;BMP280;51401;48.882;12.598;2023-04-03T00:53:14;92479.97;;;4.49
64904;BMP280;51401;48.882;12.598;2023-04-03T00:55:41;92580.47;;;4.58
64904;BMP280;51401;48.882;12.598;2023-04-03T00:58:08;92602.38;;;4.59
64904;BMP280;51401;48.882;12.598;2023-04-03T01:00:36;92687.03;;;4.51
64904;BMP280;51401;48.882;12.598;2023-04-03T01:03:03;92680.56;;;4.55
64904;BMP280;51401;48.882;12.598;2023-04-03T01:05:29;92720.63;;;4.52
64904;BMP280;51401;48.882;12.598;2023-04-03T01:07:54;92699.22;;;4.55
64904;BMP280;51401;48.882;12.598;2023-04-03T01:10:21;92743.66;;;4.52
64904;BMP280;51401;48.882;12.598;2023-04-03T01:12:49;92770.69;;;4.53
64904;BMP280;51401;48.882;12.598;2023-04-03T01:15:22;92821.22;;;4.53
64904;BMP280;51401;48.882;12.598;2023-04-03T01:17:52;92790.94;;;4.51
64904;BMP280;51401;48.882;12.598;2023-04-03T01:25:44;92818.31;;;4.46
64904;BMP280;51401;48.882;12.598;2023-04-03T01:28:19;92793.38;;;4.41
64904;BMP280;51401;48.882;12.598;2023-04-03T01:33:15;92677.13;;;4.38
64904;BMP280;51401;48.882;12.598;2023-04-03T01:35:40;92703.88;;;4.37
64904;BMP280;51401;48.882;12.598;2023-04-03T01:38:06;92627.50;;;4.36
64904;BMP280;51401;48.882;12.598;2023-04-03T01:40:32;92578.56;;;4.34
64904;BMP280;51401;48.882;12.598;2023-04-03T01:42:57;92528.38;;;4.42
64904;BMP280;51401;48.882;12.598;2023-04-03T01:45:22;92566.50;;;4.34
64904;BMP280;51401;48.882;12.598;2023-04-03T01:47:48;92585.88;;;4.41
64904;BMP280;51401;48.882;12.598;2023-04-03T01:50:13;92538.25;;;4.29
64904;BMP280;51401;48.882;12.598;2023-04-03T01:52:38;92524.84;;;4.39
64904;BMP280;51401;48.882;12.598;2023-04-03T01:55:04;92521.28;;;4.31
64904;BMP280;51401;48.882;12.598;2023-04-03T01:57:29;92534.16;;;4.37
64904;BMP280;51401;48.882;12.598;2023-04-03T01:59:55;92540.41;;;4.36
64904;BMP280;51401;48.882;12.598;2023-04-03T02:02:20;92594.00;;;4.39
64904;BMP280;51401;48.882;12.598;2023-04-03T02:04:46;92645.22;;;4.39
64904;BMP280;51401;48.882;12.598;2023-04-03T02:07:11;92641.19;;;4.33
64904;BMP280;51401;48.882;12.598;2023-04-03T02:09:37;92532.72;;;4.36
64904;BMP280;51401;48.882;12.598;2023-04-03T02:12:02;92525.69;;;4.31
64904;BMP280;51401;48.882;12.598;2023-04-03T02:14:27;92553.63;;;4.29
64904;BMP280;51401;48.882;12.598;2023-04-03T02:16:53;92454.41;;;4.24
64904;BMP280;51401;48.882;12.598;2023-04-03T02:19:18;92427.41;;;4.23
64904;BMP280;51401;48.882;12.598;2023-04-03T02:21:44;92356.41;;;4.23
64904;BMP280;51401;48.882;12.598;2023-04-03T02:24:09;92360.13;;;4.22
64904;BMP280;51401;48.882;12.598;2023-04-03T02:26:35;92276.56;;;4.25
64904;BMP280;51401;48.882;12.598;2023-04-03T02:29:00;92305.97;;;4.35
64904;BMP280;51401;48.882;12.598;2023-04-03T02:31:25;92363.94;;;4.38
64904;BMP280;51401;48.882;12.598;2023-04-03T02:33:51;92387.16;;;4.29
64904;BMP280;51401;48.882;12.598;2023-04-03T02:36:16;92385.34;;;4.35
64904;BMP280;51401;48.882;12.598;2023-04-03T02:38:41;92383.69;;;4.32
64904;BMP280;51401;48.882;12.598;2023-04-03T02:41:09;92338.31;;;4.32
64904;BMP280;51401;48.882;12.598;2023-04-03T02:43:35;92387.41;;;4.31
64904;BMP280;51401;48.882;12.598;2023-04-03T02:46:00;92367.38;;;4.29
64904;BMP280;51401;48.882;12.598;2023-04-03T02:48:26;92370.13;;;4.26
64904;BMP280;51401;48.882;12.598;2023-04-03T02:50:52;92304.50;;;4.23
64904;BMP280;51401;48.882;12.598;2023-04-03T02:53:17;92195.78;;;4.18
64904;BMP280;51401;48.882;12.598;2023-04-03T02:55:44;92194.16;;;4.26
64904;BMP280;51401;48.882;12.598;2023-04-03T02:58:10;92231.38;;;4.17
64904;BMP280;51401;48.882;12.598;2023-04-03T03:00:35;92168.75;;;4.18
64904;BMP280;51401;48.882;12.598;2023-04-03T03:03:00;92154.81;;;4.18
64904;BMP280;51401;48.882;12.598;2023-04-03T03:05:27;92132.72;;;4.21
64904;BMP280;51401;48.882;12.598;2023-04-03T03:07:52;92092.00;;;4.23
64904;BMP280;51401;48.882;12.598;2023-04-03T03:10:18;92130.59;;;4.19
64904;BMP280;51401;48.882;12.598;2023-04-03T03:12:43;92058.22;;;4.19
64904;BMP280;51401;48.882;12.598;2023-04-03T03:15:09;92066.13;;;4.16
64904;BMP280;51401;48.882;12.598;2023-04-03T03:17:34;91991.44;;;4.17
64904;BMP280;51401;48.882;12.598;2023-04-03T03:20:02;91980.94;;;4.15
64904;BMP280;51401;48.882;12.598;2023-04-03T03:22:28;91949.06;;;4.16
64904;BMP280;51401;48.882;12.598;2023-04-03T03:24:53;91909.97;;;4.21
64904;BMP280;51401;48.882;12.598;2023-04-03T03:27:18;92023.78;;;4.20
64904;BMP280;51401;48.882;12.598;2023-04-03T03:29:44;91954.41;;;4.18
64904;BMP280;51401;48.882;12.598;2023-04-03T03:32:09;91960.94;;;4.19
64904;BMP280;51401;48.882;12.598;2023-04-03T03:34:34;91931.63;;;4.15
64904;BMP280;51401;48.882;12.598;2023-04-03T03:37:00;91838.06;;;4.08
64904;BMP280;51401;48.882;12.598;2023-04-03T03:39:25;91857.63;;;4.11
64904;BMP280;51401;48.882;12.598;2023-04-03T03:41:51;91781.28;;;4.10
64904;BMP280;51401;48.882;12.598;2023-04-03T03:44:18;91800.84;;;4.13
64904;BMP280;51401;48.882;12.598;2023-04-03T03:46:43;91845.72;;;4.08
64904;BMP280;51401;48.882;12.598;2023-04-03T03:49:09;91791.06;;;4.06
64904;BMP280;51401;48.882;12.598;2023-04-03T03:51:34;91777.81;;;4.13
64904;BMP280;51401;48.882;12.598;2023-04-03T03:54:00;91771.97;;;4.12
64904;BMP280;51401;48.882;12.598;2023-04-03T03:56:26;91728.94;;;4.16
64904;BMP280;51401;48.882;12.598;2023-04-03T03:58:51;91725.69;;;4.10
64904;BMP280;51401;48.882;12.598;2023-04-03T04:01:17;91730.56;;;4.08
64904;BMP280;51401;48.882;12.598;2023-04-03T04:03:43;91754.53;;;4.16
64904;BMP280;51401;48.882;12.598;2023-04-03T04:06:08;91738.00;;;4.06
64904;BMP280;51401;48.882;12.598;2023-04-03T04:08:33;91743.34;;;4.08
64904;BMP280;51401;48.882;12.598;2023-04-03T04:10:58;91764.53;;;4.14
64904;BMP280;51401;48.882;12.598;2023-04-03T04:13:24;91770.38;;;4.09
64904;BMP280;51401;48.882;12.598;2023-04-03T04:15:49;91728.53;;;4.01
64904;BMP280;51401;48.882;12.598;2023-04-03T04:18:15;91709.44;;;4.02
64904;BMP280;51401;48.882;12.598;2023-04-03T04:20:40;91665.44;;;4.09
64904;BMP280;51401;48.882;12.598;2023-04-03T04:23:06;91676.34;;;4.10
64904;BMP280;51401;48.882;12.598;2023-04-03T04:25:31;91673.09;;;4.15
64904;BMP280;51401;48.882;12.598;2023-04-03T04:27:57;91672.00;;;3.99
64904;BMP280;51401;48.882;12.598;2023-04-03T04:30:23;91619.41;;;3.98
64904;BMP280;51401;48.882;12.598;2023-04-03T04:32:48;91554.94;;;4.05
64904;BMP280;51401;48.882;12.598;2023-04-03T04:35:13;91512.88;;;4.01
64904;BMP280;51401;48.882;12.598;2023-04-03T04:37:39;91512.81;;;4.06
64904;BMP280;51401;48.882;12.598;2023-04-03T04:40:04;91538.41;;;4.06
64904;BMP280;51401;48.882;12.598;2023-04-03T04:42:30;91565.63;;;4.09
64904;BMP280;51401;48.882;12.598;2023-04-03T04:44:55;91574.97;;;4.01
64904;BMP280;51401;48.882;12.598;2023-04-03T04:47:20;91577.28;;;4.05
64904;BMP280;51401;48.882;12.598;2023-04-03T04:49:45;91564.00;;;4.06
64904;BMP280;51401;48.882;12.598;2023-04-03T04:52:12;91562.09;;;4.18
64904;BMP280;51401;48.882;12.598;2023-04-03T04:54:38;91624.03;;;4.05
64904;BMP280;51401;48.882;12.598;2023-04-03T04:57:03;91571.19;;;4.08
64904;BMP280;51401;48.882;12.598;2023-04-03T04:59:29;91602.81;;;4.10
64904;BMP280;51401;48.882;12.598;2023-04-03T05:01:54;91633.75;;;4.18
64904;BMP280;51401;48.882;12.598;2023-04-03T05:04:19;91699.84;;;4.19
64904;BMP280;51401;48.882;12.598;2023-04-03T05:06:45;91768.72;;;4.17
64904;BMP280;51401;48.882;12.598;2023-04-03T05:09:10;91774.75;;;4.14
64904;BMP280;51401;48.882;12.598;2023-04-03T05:11:36;91738.94;;;4.14
64904;BMP280;51401;48.882;12.598;2023-04-03T05:14:01;91669.81;;;4.14
64904;BMP280;51401;48.882;12.598;2023-04-03T05:16:26;91694.50;;;4.06
64904;BMP280;51401;48.882;12.598;2023-04-03T05:18:52;91706.16;;;4.07
64904;BMP280;51401;48.882;12.598;2023-04-03T05:21:17;91781.06;;;4.13
64904;BMP280;51401;48.882;12.598;2023-04-03T05:23:48;91764.06;;;4.21
64904;BMP280;51401;48.882;12.598;2023-04-03T05:26:13;91762.44;;;4.18
64904;BMP280;51401;48.882;12.598;2023-04-03T05:28:38;91697.94;;;4.25
64904;BMP280;51401;48.882;12.598;2023-04-03T05:31:04;91749.84;;;4.31
64904;BMP280;51401;48.882;12.598;2023-04-03T05:33:29;91831.53;;;4.29
64904;BMP280;51401;48.882;12.598;2023-04-03T05:35:54;91891.09;;;4.29
64904;BMP280;51401;48.882;12.598;2023-04-03T05:38:20;91901.34;;;4.29
64904;BMP280;51401;48.882;12.598;2023-04-03T05:40:46;91953.00;;;4.28
64904;BMP280;51401;48.882;12.598;2023-04-03T05:43:12;91994.91;;;4.25
64904;BMP280;51401;48.882;12.598;2023-04-03T05:45:37;92010.97;;;4.25
64904;BMP280;51401;48.882;12.598;2023-04-03T05:48:03;92055.44;;;4.28
64904;BMP280;51401;48.882;12.598;2023-04-03T05:50:28;92122.97;;;4.30
64904;BMP280;51401;48.882;12.598;2023-04-03T05:52:56;92105.28;;;4.32
64904;BMP280;51401;48.882;12.598;2023-04-03T05:55:22;92128.09;;;4.36
64904;BMP280;51401;48.882;12.598;2023-04-03T05:57:47;92221.72;;;4.48
64904;BMP280;51401;48.882;12.598;2023-04-03T06:00:14;92426.38;;;4.40
64904;BMP280;51401;48.882;12.598;2023-04-03T06:02:40;92483.69;;;4.43
64904;BMP280;51401;48.882;12.598;2023-04-03T06:05:07;92658.59;;;4.49
64904;BMP280;51401;48.882;12.598;2023-04-03T06:07:33;92803.19;;;4.42
64904;BMP280;51401;48.882;12.598;2023-04-03T06:09:58;92891.09;;;4.53
64904;BMP280;51401;48.882;12.598;2023-04-03T06:12:24;92938.22;;;4.56
64904;BMP280;51401;48.882;12.598;2023-04-03T06:14:49;93072.19;;;4.56
64904;BMP280;51401;48.882;12.598;2023-04-03T06:17:15;93180.38;;;4.51
64904;BMP280;51401;48.882;12.598;2023-04-03T06:19:43;93251.19;;;4.63
64904;BMP280;51401;48.882;12.598;2023-04-03T06:22:08;93274.53;;;4.65
64904;BMP280;51401;48.882;12.598;2023-04-03T06:24:33;93346.94;;;4.60
64904;BMP280;51401;48.882;12.598;2023-04-03T06:26:59;93388.47;;;4.64
64904;BMP280;51401;48.882;12.598;2023-04-03T06:29:24;93442.31;;;4.64
64904;BMP280;51401;48.882;12.598;2023-04-03T06:31:50;93451.69;;;4.76
64904;BMP280;51401;48.882;12.598;2023-04-03T06:34:16;93508.94;;;4.73
64904;BMP280;51401;48.882;12.598;2023-04-03T06:36:43;93650.78;;;4.70
64904;BMP280;51401;48.882;12.598;2023-04-03T06:39:15;93799.50;;;4.79
64904;BMP280;51401;48.882;12.598;2023-04-03T06:41:41;93866.63;;;4.86
64904;BMP280;51401;48.882;12.598;2023-04-03T06:44:06;93980.66;;;4.94
64904;BMP280;51401;48.882;12.598;2023-04-03T06:46:33;94148.94;;;4.92
64904;BMP280;51401;48.882;12.598;2023-04-03T06:48:58;94359.06;;;4.86
64904;BMP280;51401;48.882;12.598;2023-04-03T06:51:28;94564.44;;;4.80
64904;BMP280;51401;48.882;12.598;2023-04-03T06:53:54;94685.22;;;4.85
64904;BMP280;51401;48.882;12.598;2023-04-03T06:56:21;94763.31;;;4.84
64904;BMP280;51401;48.882;12.598;2023-04-03T06:58:47;94772.75;;;4.87
64904;BMP280;51401;48.882;12.598;2023-04-03T07:01:14;94774.47;;;4.93
64904;BMP280;51401;48.882;12.598;2023-04-03T07:03:49;94802.69;;;4.93
64904;BMP280;51401;48.882;12.598;2023-04-03T07:06:24;94756.72;;;4.99
64904;BMP280;51401;48.882;12.598;2023-04-03T07:08:55;94911.06;;;4.97
64904;BMP280;51401;48.882;12.598;2023-04-03T07:11:20;94957.72;;;4.92
64904;BMP280;51401;48.882;12.598;2023-04-03T07:13:46;94948.09;;;4.96
64904;BMP280;51401;48.882;12.598;2023-04-03T07:16:11;94948.00;;;5.03
64904;BMP280;51401;48.882;12.598;2023-04-03T07:18:36;94987.19;;;5.04
64904;BMP280;51401;48.882;12.598;2023-04-03T07:21:02;95007.34;;;5.05
64904;BMP280;51401;48.882;12.598;2023-04-03T07:23:28;94983.09;;;5.06
64904;BMP280;51401;48.882;12.598;2023-04-03T07:25:54;94996.91;;;5.12
64904;BMP280;51401;48.882;12.598;2023-04-03T07:28:22;95062.16;;;5.15
64904;BMP280;51401;48.882;12.598;2023-04-03T07:30:53;95076.22;;;5.26
64904;BMP280;51401;48.882;12.598;2023-04-03T07:33:21;95153.50;;;5.31
64904;BMP280;51401;48.882;12.598;2023-04-03T07:35:47;95207.47;;;5.28
64904;BMP280;51401;48.882;12.598;2023-04-03T07:38:12;95151.16;;;5.40
64904;BMP280;51401;48.882;12.598;2023-04-03T07:40:38;95128.16;;;5.52
64904;BMP280;51401;48.882;12.598;2023-04-03T07:43:05;95231.97;;;5.55
64904;BMP280;51401;48.882;12.598;2023-04-03T07:45:31;95275.25;;;5.76
64904;BMP280;51401;48.882;12.598;2023-04-03T07:47:57;95272.06;;;6.26
64904;BMP280;51401;48.882;12.598;2023-04-03T07:50:23;95420.13;;;7.00
64904;BMP280;51401;48.882;12.598;2023-04-03T07:52:48;95614.28;;;7.45
64904;BMP280;51401;48.882;12.598;2023-04-03T07:55:16;95714.97;;;7.73
64904;BMP280;51401;48.882;12.598;2023-04-03T07:57:41;95912.44;;;7.70
64904;BMP280;51401;48.882;12.598;2023-04-03T08:00:08;96168.38;;;7.45
64904;BMP280;51401;48.882;12.598;2023-04-03T08:02:33;96386.44;;;7.28
64904;BMP280;51401;48.882;12.598;2023-04-03T08:04:59;96903.69;;;7.14
64904;BMP280;51401;48.882;12.598;2023-04-03T08:07:24;96922.53;;;7.21
64904;BMP280;51401;48.882;12.598;2023-04-03T08:09:50;96961.22;;;7.42
64904;BMP280;51401;48.882;12.598;2023-04-03T08:12:15;97021.38;;;8.36
64904;BMP280;51401;48.882;12.598;2023-04-03T08:15:02;97895.91;;;9.12
64904;BMP280;51401;48.882;12.598;2023-04-03T08:17:28;98076.34;;;8.93
64904;BMP280;51401;48.882;12.598;2023-04-03T08:19:53;98115.97;;;9.91
64904;BMP280;51401;48.882;12.598;2023-04-03T08:22:19;98246.41;;;10.37
64904;BMP280;51401;48.882;12.598;2023-04-03T08:24:44;98284.31;;;10.49
64904;BMP280;51401;48.882;12.598;2023-04-03T08:27:10;98357.50;;;9.40
64904;BMP280;51401;48.882;12.598;2023-04-03T08:29:38;98372.94;;;8.21
64904;BMP280;51401;48.882;12.598;2023-04-03T08:32:06;98360.38;;;7.43
64904;BMP280;51401;48.882;12.598;2023-04-03T08:34:59;98324.28;;;8.23
64904;BMP280;51401;48.882;12.598;2023-04-03T08:37:48;98372.38;;;9.43
64904;BMP280;51401;48.882;12.598;2023-04-03T08:40:15;98386.97;;;10.27
64904;BMP280;51401;48.882;12.598;2023-04-03T08:45:50;98428.44;;;10.82
64904;BMP280;51401;48.882;12.598;2023-04-03T08:48:22;98448.59;;;10.66
64904;BMP280;51401;48.882;12.598;2023-04-03T08:50:52;98435.22;;;10.93
64904;BMP280;51401;48.882;12.598;2023-04-03T08:53:25;98440.94;;;11.45
64904;BMP280;51401;48.882;12.598;2023-04-03T08:55:54;98464.00;;;10.82
64904;BMP280;51401;48.882;12.598;2023-04-03T08:58:30;98478.50;;;10.86
64904;BMP280;51401;48.882;12.598;2023-04-03T09:00:59;98482.63;;;10.90
64904;BMP280;51401;48.882;12.598;2023-04-03T09:03:30;98516.06;;;10.95
64904;BMP280;51401;48.882;12.598;2023-04-03T09:06:13;98528.00;;;10.74
64904;BMP280;51401;48.882;12.598;2023-04-03T09:11:41;98531.00;;;10.51
64904;BMP280;51401;48.882;12.598;2023-04-03T09:14:24;98523.53;;;10.24
64904;BMP280;51401;48.882;12.598;2023-04-03T09:16:56;98534.22;;;9.78
64904;BMP280;51401;48.882;12.598;2023-04-03T09:22:22;98536.31;;;10.13
64904;BMP280;51401;48.882;12.598;2023-04-03T09:24:50;98540.00;;;10.12
64904;BMP280;51401;48.882;12.598;2023-04-03T09:27:17;98530.25;;;11.37
64904;BMP280;51401;48.882;12.598;2023-04-03T09:29:46;98543.47;;;10.96
64904;BMP280;51401;48.882;12.598;2023-04-03T09:32:35;98560.84;;;10.92
64904;BMP280;51401;48.882;12.598;2023-04-03T09:35:17;98562.31;;;11.19
64904;BMP280;51401;48.882;12.598;2023-04-03T09:40:41;98558.41;;;11.35
64904;BMP280;51401;48.882;12.598;2023-04-03T09:43:28;98547.19;;;10.00
64904;BMP280;51401;48.882;12.598;2023-04-03T09:45:55;98538.63;;;10.95
64904;BMP280;51401;48.882;12.598;2023-04-03T09:48:25;98556.56;;;11.07
64904;BMP280;51401;48.882;12.598;2023-04-03T09:53:36;98563.56;;;11.32
64904;BMP280;51401;48.882;12.598;2023-04-03T09:56:18;98568.44;;;12.08
64904;BMP280;51401;48.882;12.598;2023-04-03T09:59:12;98589.50;;;11.97
64904;BMP280;51401;48.882;12.598;2023-04-03T10:04:22;98589.13;;;12.98
64904;BMP280;51401;48.882;12.598;2023-04-03T10:06:51;98578.31;;;12.85
64904;BMP280;51401;48.882;12.598;2023-04-03T10:09:26;98587.16;;;12.74
64904;BMP280;51401;48.882;12.598;2023-04-03T10:12:12;98587.66;;;11.97
64904;BMP280;51401;48.882;12.598;2023-04-03T10:26:17;98596.88;;;12.34
64904;BMP280;51401;48.882;12.598;2023-04-03T10:29:02;98591.94;;;12.68
64904;BMP280;51401;48.882;12.598;2023-04-03T10:31:37;98606.38;;;12.13
64904;BMP280;51401;48.882;12.598;2023-04-03T10:34:18;98599.19;;;12.46
64904;BMP280;51401;48.882;12.598;2023-04-03T10:42:35;98583.94;;;13.01
64904;BMP280;51401;48.882;12.598;2023-04-03T10:53:39;98601.31;;;12.30
64904;BMP280;51401;48.882;12.598;2023-04-03T10:56:31;98587.09;;;12.67
64904;BMP280;51401;48.882;12.598;2023-04-03T10:59:08;98594.06;;;12.53
64904;BMP280;51401;48.882;12.598;2023-04-03T11:01:51;98575.13;;;13.19
64904;BMP280;51401;48.882;12.598;2023-04-03T11:04:19;98591.09;;;13.18
64904;BMP280;51401;48.882;12.598;2023-04-03T11:07:02;98572.50;;;12.06
64904;BMP280;51401;48.882;12.598;2023-04-03T11:09:32;98582.91;;;11.09
64904;BMP280;51401;48.882;12.598;2023-04-03T11:12:06;98573.41;;;9.58
64904;BMP280;51401;48.882;12.598;2023-04-03T11:14:36;98554.41;;;9.50
64904;BMP280;51401;48.882;12.598;2023-04-03T11:19:52;98571.91;;;11.15
64904;BMP280;51401;48.882;12.598;2023-04-03T11:22:43;98574.69;;;12.47
64904;BMP280;51401;48.882;12.598;2023-04-03T11:25:40;98579.00;;;12.82
64904;BMP280;51401;48.882;12.598;2023-04-03T11:28:15;98569.84;;;13.12
64904;BMP280;51401;48.882;12.598;2023-04-03T11:30:49;98569.63;;;11.75
64904;BMP280;51401;48.882;12.598;2023-04-03T11:36:45;98570.00;;;10.61
64904;BMP280;51401;48.882;12.598;2023-04-03T11:38:49;98577.03;;;11.77
64904;BMP280;51401;48.882;12.598;2023-04-03T11:41:25;98587.66;;;12.93
64904;BMP280;51401;48.882;12.598;2023-04-03T11:44:14;98590.19;;;14.08
64904;BMP280;51401;48.882;12.598;2023-04-03T11:46:58;98571.84;;;13.53
64904;BMP280;51401;48.882;12.598;2023-04-03T11:50:16;98564.75;;;12.09
64904;BMP280;51401;48.882;12.598;2023-04-03T12:00:48;98553.38;;;12.84
64904;BMP280;51401;48.882;12.598;2023-04-03T12:09:02;98553.53;;;12.52
64904;BMP280;51401;48.882;12.598;2023-04-03T12:11:40;98543.53;;;13.41
64904;BMP280;51401;48.882;12.598;2023-04-03T12:14:14;98542.38;;;13.22
64904;BMP280;51401;48.882;12.598;2023-04-03T12:16:42;98553.78;;;12.33
64904;BMP280;51401;48.882;12.598;2023-04-03T12:26:50;98558.03;;;12.08
64904;BMP280;51401;48.882;12.598;2023-04-03T12:29:29;98535.25;;;11.92
64904;BMP280;51401;48.882;12.598;2023-04-03T12:32:18;98546.72;;;11.91
64904;BMP280;51401;48.882;12.598;2023-04-03T12:43:46;98545.56;;;12.28
64904;BMP280;51401;48.882;12.598;2023-04-03T12:46:17;98536.38;;;13.07
64904;BMP280;51401;48.882;12.598;2023-04-03T12:48:53;98534.16;;;11.89
64904;BMP280;51401;48.882;12.598;2023-04-03T12:51:40;98522.41;;;10.47
64904;BMP280;51401;48.882;12.598;2023-04-03T12:54:31;98524.63;;;10.23
64904;BMP280;51401;48.882;12.598;2023-04-03T12:57:22;98511.78;;;9.85
64904;BMP280;51401;48.882;12.598;2023-04-03T12:59:49;98506.13;;;9.02
64904;BMP280;51401;48.882;12.598;2023-04-03T13:02:52;98506.63;;;9.48
64904;BMP280;51401;48.882;12.598;2023-04-03T13:06:02;98516.06;;;9.18
64904;BMP280;51401;48.882;12.598;2023-04-03T13:08:29;98514.97;;;9.57
64904;BMP280;51401;48.882;12.598;2023-04-03T13:11:01;98533.03;;;10.89
64904;BMP280;51401;48.882;12.598;2023-04-03T13:13:28;98527.66;;;10.54
64904;BMP280;51401;48.882;12.598;2023-04-03T13:15:54;98531.03;;;10.54
64904;BMP280;51401;48.882;12.598;2023-04-03T13:18:38;98519.06;;;11.01
64904;BMP280;51401;48.882;12.598;2023-04-03T13:21:25;98524.72;;;11.75
64904;BMP280;51401;48.882;12.598;2023-04-03T13:23:56;98528.13;;;11.82
64904;BMP280;51401;48.882;12.598;2023-04-03T13:26:24;98516.38;;;11.98
64904;BMP280;51401;48.882;12.598;2023-04-03T13:28:51;98536.56;;;10.78
64904;BMP280;51401;48.882;12.598;2023-04-03T13:31:22;98517.88;;;11.99
64904;BMP280;51401;48.882;12.598;2023-04-03T13:34:06;98515.50;;;12.94
64904;BMP280;51401;48.882;12.598;2023-04-03T13:36:40;98521.53;;;13.22
64904;BMP280;51401;48.882;12.598;2023-04-03T13:39:22;98522.47;;;12.19
64904;BMP280;51401;48.882;12.598;2023-04-03T13:41:50;98510.81;;;10.92
64904;BMP280;51401;48.882;12.598;2023-04-03T13:46:56;98524.84;;;10.91
64904;BMP280;51401;48.882;12.598;2023-04-03T13:49:30;98516.22;;;11.81
64904;BMP280;51401;48.882;12.598;2023-04-03T13:51:55;98517.38;;;11.12
64904;BMP280;51401;48.882;12.598;2023-04-03T13:54:29;98505.53;;;9.67
64904;BMP280;51401;48.882;12.598;2023-04-03T13:56:56;98504.47;;;9.12
64904;BMP280;51401;48.882;12.598;2023-04-03T13:59:24;98498.53;;;8.59
64904;BMP280;51401;48.882;12.598;2023-04-03T14:01:54;98502.22;;;8.28
64904;BMP280;51401;48.882;12.598;2023-04-03T14:04:26;98502.00;;;8.67
64904;BMP280;51401;48.882;12.598;2023-04-03T14:06:53;98511.34;;;9.83
64904;BMP280;51401;48.882;12.598;2023-04-03T14:09:40;98509.69;;;10.93
64904;BMP280;51401;48.882;12.598;2023-04-03T14:12:15;98512.13;;;12.26
64904;BMP280;51401;48.882;12.598;2023-04-03T14:14:41;98514.81;;;13.07
64904;BMP280;51401;48.882;12.598;2023-04-03T14:17:18;98510.50;;;13.80
64904;BMP280;51401;48.882;12.598;2023-04-03T14:19:44;98503.34;;;13.39
64904;BMP280;51401;48.882;12.598;2023-04-03T14:22:36;98516.03;;;12.00
64904;BMP280;51401;48.882;12.598;2023-04-03T14:25:02;98506.56;;;10.52
64904;BMP280;51401;48.882;12.598;2023-04-03T14:27:37;98502.22;;;9.48
64904;BMP280;51401;48.882;12.598;2023-04-03T14:30:04;98496.06;;;8.81
64904;BMP280;51401;48.882;12.598;2023-04-03T14:32:29;98490.72;;;8.41
64904;BMP280;51401;48.882;12.598;2023-04-03T14:35:23;98497.66;;;8.06
64904;BMP280;51401;48.882;12.598;2023-04-03T14:37:49;98497.09;;;8.62
64904;BMP280;51401;48.882;12.598;2023-04-03T14:40:18;98488.59;;;9.70
64904;BMP280;51401;48.882;12.598;2023-04-03T14:42:46;98482.44;;;9.37
64904;BMP280;51401;48.882;12.598;2023-04-03T14:45:14;98490.94;;;8.85
64904;BMP280;51401;48.882;12.598;2023-04-03T14:47:58;98488.59;;;8.61
64904;BMP280;51401;48.882;12.598;2023-04-03T14:50:26;98486.56;;;8.21
64904;BMP280;51401;48.882;12.598;2023-04-03T14:52:57;98485.56;;;8.10
64904;BMP280;51401;48.882;12.598;2023-04-03T14:55:24;98472.63;;;7.64
64904;BMP280;51401;48.882;12.598;2023-04-03T14:57:50;98472.28;;;7.81
64904;BMP280;51401;48.882;12.598;2023-04-03T15:00:22;98478.72;;;8.02
64904;BMP280;51401;48.882;12.598;2023-04-03T15:03:34;98475.06;;;8.34
64904;BMP280;51401;48.882;12.598;2023-04-03T15:05:59;98480.63;;;8.51
64904;BMP280;51401;48.882;12.598;2023-04-03T15:08:30;98481.03;;;8.38
64904;BMP280;51401;48.882;12.598;2023-04-03T15:10:56;98488.91;;;8.26
64904;BMP280;51401;48.882;12.598;2023-04-03T15:13:22;98473.69;;;7.78
64904;BMP280;51401;48.882;12.598;2023-04-03T15:15:48;98478.50;;;7.65
64904;BMP280;51401;48.882;12.598;2023-04-03T15:18:20;98478.47;;;7.92
64904;BMP280;51401;48.882;12.598;2023-04-03T15:20:47;98488.69;;;7.88
64904;BMP280;51401;48.882;12.598;2023-04-03T15:23:14;98483.00;;;7.68
64904;BMP280;51401;48.882;12.598;2023-04-03T15:25:44;98492.56;;;7.67
64904;BMP280;51401;48.882;12.598;2023-04-03T15:28:40;98496.63;;;7.53
64904;BMP280;51401;48.882;12.598;2023-04-03T15:31:08;98494.09;;;7.41
64904;BMP280;51401;48.882;12.598;2023-04-03T15:33:35;98485.00;;;7.32
64904;BMP280;51401;48.882;12.598;2023-04-03T15:36:01;98492.88;;;7.12
64904;BMP280;51401;48.882;12.598;2023-04-03T15:38:27;98496.63;;;7.14
64904;BMP280;51401;48.882;12.598;2023-04-03T15:41:01;98486.94;;;7.23
64904;BMP280;51401;48.882;12.598;2023-04-03T15:43:27;98485.53;;;7.25
64904;BMP280;51401;48.882;12.598;2023-04-03T15:45:52;98489.38;;;7.43
64904;BMP280;51401;48.882;12.598;2023-04-03T15:48:21;98497.72;;;7.40
64904;BMP280;51401;48.882;12.598;2023-04-03T15:50:46;98488.84;;;7.26